Time;durP1;ratioP1;P1;durP2;ratioP2;P2;SDS_P1;SDS_P2;PMS_P1;PMS_P2;Temp;Humidity;BMP_temperature;BMP_pressure;BME280_temperature;BME280_humidity;BME280_pressure;Samples;Min_cycle;Max_cycle;Signal;HPM_P1;HPM_P2
2021/08/02 00:00:54;;;;;;;9.60;2.60;;;;;;;;;;4983793;28;20114;-78
2021/08/02 00:03:28;;;;;;;13.70;3.53;;;;;;;;;;4999928;28;20033;-78
2021/08/02 00:05:58;;;;;;;9.02;2.13;;;;;;;;;;5003994;28;20030;-78
2021/08/02 00:08:25;;;;;;;8.13;2.72;;;;;;;;;;4990127;28;20037;-78
2021/08/02 00:10:51;;;;;;;24.25;2.42;;;;;;;;;;4989362;28;20424;-78
2021/08/02 00:13:37;;;;;;;7.38;2.35;;;;;;;;;;4990478;28;20038;-77
2021/08/02 00:16:06;;;;;;;6.95;2.20;;;;;;;;;;4988750;28;20301;-77
2021/08/02 00:18:34;;;;;;;6.25;2.58;;;;;;;;;;4987067;28;20023;-80
2021/08/02 00:21:02;;;;;;;8.55;2.55;;;;;;;;;;4994026;28;20080;-81
2021/08/02 00:23:28;;;;;;;9.23;3.08;;;;;;;;;;4988412;28;20026;-82
2021/08/02 00:25:57;;;;;;;6.18;2.17;;;;;;;;;;4976162;28;20409;-80
2021/08/02 00:28:23;;;;;;;7.00;2.50;;;;;;;;;;4971072;28;20026;-81
2021/08/02 00:30:50;;;;;;;13.40;3.22;;;;;;;;;;4982497;28;20038;-81
2021/08/02 00:33:15;;;;;;;11.13;2.20;;;;;;;;;;4972584;28;20031;-83
2021/08/02 00:36:08;;;;;;;11.20;2.85;;;;;;;;;;4978315;28;20142;-82
2021/08/02 00:38:47;;;;;;;7.60;2.55;;;;;;;;;;4984173;28;20069;-81
2021/08/02 00:41:42;;;;;;;10.30;2.33;;;;;;;;;;4994257;28;20113;-82
2021/08/02 00:44:16;;;;;;;8.98;2.20;;;;;;;;;;4986023;28;20490;-84
2021/08/02 00:46:47;;;;;;;10.27;2.90;;;;;;;;;;4990837;28;20046;-82
2021/08/02 00:49:15;;;;;;;8.75;2.38;;;;;;;;;;4997468;28;20033;-82
2021/08/02 00:51:51;;;;;;;8.00;2.20;;;;;;;;;;4997346;28;20034;-82
2021/08/02 00:54:19;;;;;;;7.68;2.65;;;;;;;;;;4986665;28;20094;-82
2021/08/02 00:56:47;;;;;;;6.65;3.00;;;;;;;;;;4986218;28;20077;-82
2021/08/02 00:59:14;;;;;;;6.45;2.33;;;;;;;;;;4970295;28;20038;-82
2021/08/02 01:01:39;;;;;;;9.80;2.35;;;;;;;;;;4988275;28;20593;-82
2021/08/02 01:04:07;;;;;;;6.78;2.40;;;;;;;;;;4993497;28;20117;-83
2021/08/02 01:06:33;;;;;;;7.32;2.53;;;;;;;;;;4978099;28;20056;-81
2021/08/02 01:09:04;;;;;;;5.97;2.10;;;;;;;;;;4989495;28;20034;-81
2021/08/02 01:11:32;;;;;;;8.63;2.45;;;;;;;;;;4992178;28;20548;-81
2021/08/02 01:14:00;;;;;;;10.02;2.67;;;;;;;;;;4983563;28;20481;-81
2021/08/02 01:16:27;;;;;;;8.57;2.40;;;;;;;;;;4993482;28;20042;-81
2021/08/02 01:18:54;;;;;;;3.65;2.40;;;;;;;;;;4971215;28;20037;-80
2021/08/02 01:21:23;;;;;;;10.77;2.80;;;;;;;;;;4984360;28;20050;-80
2021/08/02 01:23:49;;;;;;;6.68;2.67;;;;;;;;;;4993129;28;20173;-78
2021/08/02 01:26:42;;;;;;;6.47;2.70;;;;;;;;;;4989459;28;20038;-78
2021/08/02 01:29:45;;;;;;;8.55;2.63;;;;;;;;;;4987739;28;20693;-78
2021/08/02 01:32:12;;;;;;;10.80;2.40;;;;;;;;;;4992769;28;20125;-77
2021/08/02 01:34:38;;;;;;;10.13;2.45;;;;;;;;;;4996997;28;20035;-77
2021/08/02 01:37:04;;;;;;;8.35;2.60;;;;;;;;;;4988739;28;20061;-78
2021/08/02 01:39:29;;;;;;;9.25;2.80;;;;;;;;;;4993407;28;20072;-78
2021/08/02 01:41:55;;;;;;;5.43;2.58;;;;;;;;;;4989469;28;20192;-77
2021/08/02 01:44:20;;;;;;;10.30;2.78;;;;;;;;;;5000773;28;20057;-78
2021/08/02 01:47:07;;;;;;;18.40;3.05;;;;;;;;;;4974103;28;20074;-78
2021/08/02 01:49:41;;;;;;;6.78;2.67;;;;;;;;;;4993036;28;20088;-78
2021/08/02 01:52:15;;;;;;;9.70;2.67;;;;;;;;;;4997187;28;20413;-78
2021/08/02 01:54:55;;;;;;;7.68;3.22;;;;;;;;;;4991165;28;20052;-78
2021/08/02 01:57:39;;;;;;;6.90;2.88;;;;;;;;;;4987605;28;20052;-78
2021/08/02 02:00:11;;;;;;;8.20;2.95;;;;;;;;;;4987828;28;20033;-78
2021/08/02 02:02:39;;;;;;;9.35;2.40;;;;;;;;;;4994432;28;20748;-78
2021/08/02 02:05:17;;;;;;;10.52;2.63;;;;;;;;;;4984681;28;20426;-78
2021/08/02 02:08:21;;;;;;;13.40;2.50;;;;;;;;;;4996595;28;20533;-78
2021/08/02 02:10:55;;;;;;;13.15;2.45;;;;;;;;;;4983473;28;20091;-78
2021/08/02 02:13:42;;;;;;;8.30;2.00;;;;;;;;;;4992171;28;20050;-78
2021/08/02 02:16:09;;;;;;;8.52;2.95;;;;;;;;;;4999168;28;20031;-80
2021/08/02 02:18:39;;;;;;;11.05;2.67;;;;;;;;;;4986913;28;20045;-78
2021/08/02 02:21:07;;;;;;;9.45;2.90;;;;;;;;;;4990198;28;20034;-78
2021/08/02 02:23:33;;;;;;;6.15;2.28;;;;;;;;;;4993944;28;20033;-78
2021/08/02 02:25:59;;;;;;;11.40;2.72;;;;;;;;;;4964628;28;20038;-79
2021/08/02 02:28:25;;;;;;;8.52;3.42;;;;;;;;;;4986545;28;20403;-78
2021/08/02 02:30:53;;;;;;;10.27;2.60;;;;;;;;;;4976570;28;20348;-79
2021/08/02 02:33:19;;;;;;;7.70;2.70;;;;;;;;;;4992110;28;20046;-78
2021/08/02 02:35:47;;;;;;;10.48;2.20;;;;;;;;;;4985830;28;20101;-78
2021/08/02 02:38:14;;;;;;;6.32;2.38;;;;;;;;;;4992339;28;20794;-78
2021/08/02 02:40:45;;;;;;;11.13;2.70;;;;;;;;;;4996182;28;20464;-78
2021/08/02 02:43:12;;;;;;;5.25;2.40;;;;;;;;;;4985575;28;20041;-78
2021/08/02 02:45:39;;;;;;;6.25;2.25;;;;;;;;;;4982974;28;20078;-78
2021/08/02 02:48:06;;;;;;;13.85;2.92;;;;;;;;;;4976024;28;20032;-78
2021/08/02 02:50:33;;;;;;;5.97;2.53;;;;;;;;;;4994874;28;20025;-78
2021/08/02 02:53:04;;;;;;;7.95;3.00;;;;;;;;;;4991564;28;20097;-78
2021/08/02 02:55:32;;;;;;;13.85;3.20;;;;;;;;;;4983182;28;20023;-78
2021/08/02 02:57:57;;;;;;;5.32;2.70;;;;;;;;;;4987474;28;20048;-78
2021/08/02 03:00:23;;;;;;;10.45;3.00;;;;;;;;;;4992242;28;20038;-78
2021/08/02 03:02:50;;;;;;;8.57;2.85;;;;;;;;;;4994543;28;20046;-79
2021/08/02 03:05:18;;;;;;;8.93;3.45;;;;;;;;;;4993499;28;20448;-78
2021/08/02 03:07:44;;;;;;;10.35;4.28;;;;;;;;;;4977395;28;20041;-78
2021/08/02 03:10:15;;;;;;;8.77;3.70;;;;;;;;;;4990681;28;20030;-78
2021/08/02 03:12:40;;;;;;;8.23;4.05;;;;;;;;;;4992752;28;20034;-79
2021/08/02 03:15:06;;;;;;;9.80;3.50;;;;;;;;;;4989024;28;20034;-78
2021/08/02 03:17:32;;;;;;;12.32;3.33;;;;;;;;;;4972571;28;20494;-79
2021/08/02 03:19:57;;;;;;;10.43;3.95;;;;;;;;;;4985944;28;20038;-78
2021/08/02 03:22:28;;;;;;;15.85;4.00;;;;;;;;;;4989198;28;20045;-78
2021/08/02 03:25:13;;;;;;;6.50;3.53;;;;;;;;;;5012009;28;20408;-78
2021/08/02 03:28:06;;;;;;;10.82;3.33;;;;;;;;;;4989346;28;20045;-78
2021/08/02 03:30:36;;;;;;;10.13;3.38;;;;;;;;;;5001060;28;20070;-78
2021/08/02 03:33:05;;;;;;;15.18;3.85;;;;;;;;;;4998450;28;20464;-78
2021/08/02 03:35:32;;;;;;;9.55;3.28;;;;;;;;;;4991956;28;20030;-78
2021/08/02 03:37:58;;;;;;;10.82;4.28;;;;;;;;;;4992077;28;20038;-78
2021/08/02 03:40:24;;;;;;;7.88;3.63;;;;;;;;;;4994130;28;20030;-77
2021/08/02 03:42:51;;;;;;;9.55;3.38;;;;;;;;;;4994399;28;20473;-78
2021/08/02 03:45:19;;;;;;;10.25;3.78;;;;;;;;;;4992906;28;20042;-78
2021/08/02 03:47:45;;;;;;;11.80;3.45;;;;;;;;;;4987926;28;20032;-77
2021/08/02 03:50:11;;;;;;;11.57;3.60;;;;;;;;;;5004494;28;20050;-77
2021/08/02 03:52:37;;;;;;;9.20;3.55;;;;;;;;;;4991638;28;20109;-81
2021/08/02 03:55:05;;;;;;;11.43;3.30;;;;;;;;;;4994118;28;20473;-81
2021/08/02 03:57:32;;;;;;;10.13;3.95;;;;;;;;;;4991519;28;20573;-82
2021/08/02 03:59:58;;;;;;;15.70;3.67;;;;;;;;;;4996569;28;20057;-81
2021/08/02 04:02:24;;;;;;;12.02;3.40;;;;;;;;;;4986208;28;20022;-81
2021/08/02 04:04:49;;;;;;;15.20;3.78;;;;;;;;;;4950318;28;20701;-81
2021/08/02 04:07:15;;;;;;;7.07;3.30;;;;;;;;;;4994763;28;20311;-81
2021/08/02 04:09:40;;;;;;;8.95;3.30;;;;;;;;;;4996844;28;20034;-81
2021/08/02 04:12:09;;;;;;;9.30;3.40;;;;;;;;;;4984074;28;20039;-81
2021/08/02 04:14:38;;;;;;;13.05;3.78;;;;;;;;;;4988928;28;20437;-81
2021/08/02 04:17:04;;;;;;;9.32;3.63;;;;;;;;;;5007104;28;20125;-81
2021/08/02 04:19:30;;;;;;;8.32;3.80;;;;;;;;;;5004760;28;20022;-81
2021/08/02 04:21:58;;;;;;;9.05;3.40;;;;;;;;;;4981223;28;20053;-81
2021/08/02 04:24:23;;;;;;;12.02;3.90;;;;;;;;;;4989492;28;20121;-77
2021/08/02 04:26:48;;;;;;;10.23;4.13;;;;;;;;;;4954891;28;20612;-78
2021/08/02 04:29:14;;;;;;;6.82;3.67;;;;;;;;;;4989715;28;20529;-77
2021/08/02 04:31:39;;;;;;;12.75;3.72;;;;;;;;;;4989752;28;20361;-77
2021/08/02 04:34:05;;;;;;;11.80;4.15;;;;;;;;;;4976053;28;20030;-76
2021/08/02 04:36:30;;;;;;;11.98;3.63;;;;;;;;;;4965979;28;20410;-78
2021/08/02 04:38:57;;;;;;;13.98;4.00;;;;;;;;;;4993645;28;20073;-77
2021/08/02 04:41:23;;;;;;;17.48;4.30;;;;;;;;;;5002094;28;20487;-77
2021/08/02 04:43:48;;;;;;;14.10;4.22;;;;;;;;;;4985177;28;20066;-77
2021/08/02 04:46:14;;;;;;;10.10;4.35;;;;;;;;;;4995344;28;20046;-77
2021/08/02 04:48:39;;;;;;;14.50;4.63;;;;;;;;;;4969992;28;20088;-77
2021/08/02 04:51:05;;;;;;;15.60;4.32;;;;;;;;;;4978486;28;20034;-77
2021/08/02 04:53:30;;;;;;;9.93;4.35;;;;;;;;;;4950662;28;20038;-79
2021/08/02 04:55:56;;;;;;;12.15;4.50;;;;;;;;;;4984886;28;20029;-79
2021/08/02 04:58:21;;;;;;;8.18;4.00;;;;;;;;;;4971999;28;20035;-77
2021/08/02 05:00:47;;;;;;;17.10;5.03;;;;;;;;;;4996689;28;20848;-78
2021/08/02 05:03:12;;;;;;;13.05;4.80;;;;;;;;;;4993052;28;20121;-78
2021/08/02 05:05:38;;;;;;;9.98;4.50;;;;;;;;;;4989336;28;20034;-78
2021/08/02 05:08:04;;;;;;;8.20;4.18;;;;;;;;;;4968942;28;20026;-79
2021/08/02 05:10:29;;;;;;;13.38;4.78;;;;;;;;;;4986781;28;20031;-77
2021/08/02 05:12:55;;;;;;;12.90;5.13;;;;;;;;;;4958806;28;20030;-78
2021/08/02 05:15:20;;;;;;;15.88;5.50;;;;;;;;;;4969841;28;20065;-78
2021/08/02 05:17:46;;;;;;;15.02;5.80;;;;;;;;;;5001561;28;20033;-77
2021/08/02 05:20:11;;;;;;;15.23;6.45;;;;;;;;;;4984261;28;20022;-77
2021/08/02 05:22:37;;;;;;;14.40;5.70;;;;;;;;;;4991575;28;20037;-78
2021/08/02 05:25:04;;;;;;;13.15;5.03;;;;;;;;;;4995492;28;20084;-78
2021/08/02 05:27:29;;;;;;;12.93;4.60;;;;;;;;;;4997146;28;20057;-77
2021/08/02 05:29:55;;;;;;;9.85;4.50;;;;;;;;;;4993204;28;20065;-77
2021/08/02 05:32:20;;;;;;;20.98;5.47;;;;;;;;;;4989843;28;20076;-77
2021/08/02 05:34:46;;;;;;;14.05;4.65;;;;;;;;;;4986186;28;20126;-77
2021/08/02 05:37:13;;;;;;;13.93;4.93;;;;;;;;;;4988828;28;20493;-78
2021/08/02 05:39:39;;;;;;;10.45;4.63;;;;;;;;;;5007600;28;20045;-77
2021/08/02 05:42:06;;;;;;;11.00;4.30;;;;;;;;;;4994313;28;20038;-76
2021/08/02 05:44:32;;;;;;;13.57;4.93;;;;;;;;;;4985888;28;20055;-77
2021/08/02 05:46:58;;;;;;;12.10;4.47;;;;;;;;;;4982445;28;20038;-77
2021/08/02 05:49:24;;;;;;;8.93;4.20;;;;;;;;;;4997225;28;20735;-77
2021/08/02 05:51:49;;;;;;;11.40;4.57;;;;;;;;;;5002868;28;20053;-78
2021/08/02 05:54:15;;;;;;;7.35;4.28;;;;;;;;;;4992895;28;20037;-77
2021/08/02 05:56:41;;;;;;;10.25;4.95;;;;;;;;;;4998260;28;20044;-78
2021/08/02 05:59:06;;;;;;;19.92;4.60;;;;;;;;;;4976339;28;20034;-77
2021/08/02 06:01:32;;;;;;;11.10;4.55;;;;;;;;;;4970644;28;20100;-77
2021/08/02 06:03:57;;;;;;;15.60;4.65;;;;;;;;;;4970594;28;20085;-78
2021/08/02 06:06:23;;;;;;;11.50;4.57;;;;;;;;;;5009278;28;20150;-78
2021/08/02 06:08:48;;;;;;;12.05;4.50;;;;;;;;;;4989522;28;20046;-78
2021/08/02 06:11:14;;;;;;;9.43;4.60;;;;;;;;;;4975280;28;20048;-80
2021/08/02 06:13:39;;;;;;;9.77;4.43;;;;;;;;;;4988234;28;20038;-78
2021/08/02 06:16:05;;;;;;;22.48;4.85;;;;;;;;;;4999287;28;20030;-78
2021/08/02 06:18:30;;;;;;;17.58;5.38;;;;;;;;;;4988471;28;20041;-79
2021/08/02 06:20:56;;;;;;;15.10;5.63;;;;;;;;;;4990403;28;20033;-78
2021/08/02 06:23:22;;;;;;;10.60;4.18;;;;;;;;;;4987200;28;20034;-81
2021/08/02 06:25:47;;;;;;;13.30;4.35;;;;;;;;;;4977823;28;20034;-81
2021/08/02 06:28:13;;;;;;;10.85;4.47;;;;;;;;;;4992270;28;20060;-82
2021/08/02 06:30:38;;;;;;;10.20;4.03;;;;;;;;;;5000441;28;20109;-80
2021/08/02 06:33:04;;;;;;;9.60;4.35;;;;;;;;;;4968553;28;20031;-79
2021/08/02 06:35:30;;;;;;;17.42;4.53;;;;;;;;;;4995268;28;20037;-79
2021/08/02 06:37:55;;;;;;;8.52;4.25;;;;;;;;;;4974892;28;20042;-79
2021/08/02 06:40:21;;;;;;;13.32;4.78;;;;;;;;;;4993702;28;20034;-79
2021/08/02 06:42:47;;;;;;;10.15;4.28;;;;;;;;;;4976853;28;20053;-80
2021/08/02 06:45:13;;;;;;;12.82;5.80;;;;;;;;;;4958361;28;20058;-80
2021/08/02 06:47:39;;;;;;;11.40;6.32;;;;;;;;;;4999721;28;20038;-80
2021/08/02 06:50:06;;;;;;;13.05;5.50;;;;;;;;;;4998732;28;20033;-80
2021/08/02 06:52:31;;;;;;;16.25;5.13;;;;;;;;;;4997215;28;20037;-79
2021/08/02 06:54:57;;;;;;;17.95;4.50;;;;;;;;;;4975015;28;20579;-78
2021/08/02 06:57:22;;;;;;;17.30;4.53;;;;;;;;;;4975865;28;20368;-79
2021/08/02 06:59:48;;;;;;;11.82;4.30;;;;;;;;;;4987204;28;20065;-78
2021/08/02 07:02:14;;;;;;;8.02;4.10;;;;;;;;;;4974958;28;20038;-78
2021/08/02 07:04:39;;;;;;;11.75;4.25;;;;;;;;;;4973467;28;20006;-78
2021/08/02 07:07:05;;;;;;;9.40;3.97;;;;;;;;;;4979204;28;20045;-77
2021/08/02 07:09:30;;;;;;;11.43;4.13;;;;;;;;;;5001691;28;20061;-78
2021/08/02 07:11:56;;;;;;;12.32;4.45;;;;;;;;;;4993920;28;20046;-78
2021/08/02 07:14:21;;;;;;;8.38;4.20;;;;;;;;;;5001493;28;20049;-77
2021/08/02 07:16:47;;;;;;;10.43;3.83;;;;;;;;;;5000008;28;20045;-78
2021/08/02 07:19:12;;;;;;;9.57;3.90;;;;;;;;;;4999207;28;20069;-78
2021/08/02 07:21:38;;;;;;;9.35;3.75;;;;;;;;;;4971465;28;20034;-78
2021/08/02 07:24:04;;;;;;;9.57;3.45;;;;;;;;;;4982287;28;20124;-78
2021/08/02 07:26:29;;;;;;;9.48;3.55;;;;;;;;;;4993807;28;20022;-78
2021/08/02 07:28:58;;;;;;;12.07;3.80;;;;;;;;;;4995604;28;20030;-78
2021/08/02 07:31:27;;;;;;;11.35;4.03;;;;;;;;;;5005757;28;20497;-78
2021/08/02 07:33:54;;;;;;;12.57;3.50;;;;;;;;;;4995675;28;20034;-78
2021/08/02 07:36:19;;;;;;;7.20;3.03;;;;;;;;;;4995966;28;20019;-77
2021/08/02 07:38:45;;;;;;;12.30;3.13;;;;;;;;;;4988029;28;20031;-78
2021/08/02 07:41:11;;;;;;;12.65;3.30;;;;;;;;;;4991865;28;20041;-78
2021/08/02 07:43:37;;;;;;;9.70;3.25;;;;;;;;;;4996476;28;20042;-79
2021/08/02 07:46:03;;;;;;;7.97;2.85;;;;;;;;;;4996300;28;20048;-78
2021/08/02 07:48:29;;;;;;;7.32;2.58;;;;;;;;;;4985749;28;20034;-78
2021/08/02 07:50:54;;;;;;;7.10;2.75;;;;;;;;;;4974820;28;20460;-78
2021/08/02 07:53:20;;;;;;;9.05;2.70;;;;;;;;;;4969009;28;20061;-78
2021/08/02 07:55:45;;;;;;;8.88;2.60;;;;;;;;;;4992095;28;20033;-78
2021/08/02 07:58:11;;;;;;;7.05;2.78;;;;;;;;;;4992357;28;20034;-78
2021/08/02 08:00:37;;;;;;;9.27;3.15;;;;;;;;;;4973899;28;20084;-78
2021/08/02 08:03:02;;;;;;;7.95;3.03;;;;;;;;;;4995990;28;20030;-78
2021/08/02 08:05:29;;;;;;;10.38;2.88;;;;;;;;;;4993628;28;20126;-77
2021/08/02 08:07:55;;;;;;;10.60;2.75;;;;;;;;;;4975188;28;20134;-77
2021/08/02 08:10:25;;;;;;;11.73;2.70;;;;;;;;;;4988531;28;20636;-79
2021/08/02 08:12:51;;;;;;;6.43;2.97;;;;;;;;;;4988283;28;20038;-78
2021/08/02 08:15:19;;;;;;;8.93;3.72;;;;;;;;;;4986558;28;20110;-78
2021/08/02 08:17:45;;;;;;;6.72;2.85;;;;;;;;;;4991274;28;20034;-79
2021/08/02 08:20:12;;;;;;;11.35;3.28;;;;;;;;;;4990031;28;20010;-78
2021/08/02 08:22:38;;;;;;;8.15;2.67;;;;;;;;;;4966013;28;20405;-78
2021/08/02 08:25:05;;;;;;;7.70;2.85;;;;;;;;;;4995468;28;20045;-80
2021/08/02 08:27:31;;;;;;;7.63;2.83;;;;;;;;;;4985551;28;20113;-80
2021/08/02 08:29:56;;;;;;;5.82;2.85;;;;;;;;;;4984944;28;20121;-80
2021/08/02 08:32:22;;;;;;;7.68;2.42;;;;;;;;;;4967445;28;20038;-80
2021/08/02 08:34:48;;;;;;;7.15;2.50;;;;;;;;;;4982154;28;20104;-80
2021/08/02 08:37:13;;;;;;;5.38;2.28;;;;;;;;;;4973706;28;20528;-79
2021/08/02 08:39:39;;;;;;;6.97;2.53;;;;;;;;;;4972278;28;20038;-80
2021/08/02 08:42:05;;;;;;;6.20;2.40;;;;;;;;;;4992039;28;20283;-80
2021/08/02 08:44:31;;;;;;;5.30;2.20;;;;;;;;;;4977515;28;20099;-80
2021/08/02 08:46:57;;;;;;;4.97;1.98;;;;;;;;;;4992820;28;20034;-80
2021/08/02 08:49:23;;;;;;;3.95;2.28;;;;;;;;;;4981606;28;20042;-80
2021/08/02 08:51:48;;;;;;;8.63;2.40;;;;;;;;;;4963539;28;20030;-80
2021/08/02 08:54:14;;;;;;;6.70;2.08;;;;;;;;;;4981993;28;20045;-80
2021/08/02 08:56:40;;;;;;;14.73;4.22;;;;;;;;;;4981059;28;20030;-80
2021/08/02 08:59:10;;;;;;;3.72;2.28;;;;;;;;;;4987795;28;20516;-80
2021/08/02 09:01:36;;;;;;;3.88;1.92;;;;;;;;;;4987225;28;20037;-80
2021/08/02 09:04:03;;;;;;;16.88;2.30;;;;;;;;;;4992134;28;20033;-79
2021/08/02 09:06:28;;;;;;;6.75;2.33;;;;;;;;;;4987784;28;20031;-80
2021/08/02 09:08:54;;;;;;;5.93;1.95;;;;;;;;;;4983800;28;20044;-81
2021/08/02 09:11:25;;;;;;;7.03;2.35;;;;;;;;;;4955469;28;20117;-80
2021/08/02 09:13:52;;;;;;;4.68;1.70;;;;;;;;;;4994766;28;20045;-80
2021/08/02 09:16:25;;;;;;;3.58;1.73;;;;;;;;;;4986202;28;20031;-80
2021/08/02 09:19:05;;;;;;;3.80;1.77;;;;;;;;;;4968833;28;20120;-80
2021/08/02 09:21:44;;;;;;;5.32;2.10;;;;;;;;;;4981414;28;20855;-80
2021/08/02 09:24:10;;;;;;;6.10;2.10;;;;;;;;;;4988576;28;20033;-78
2021/08/02 09:26:39;;;;;;;7.20;1.90;;;;;;;;;;4989285;28;20541;-78
2021/08/02 09:29:05;;;;;;;6.97;1.95;;;;;;;;;;4990466;28;20121;-79
2021/08/02 09:31:36;;;;;;;5.03;1.75;;;;;;;;;;4988144;28;20157;-78
2021/08/02 09:34:07;;;;;;;6.53;2.10;;;;;;;;;;4984802;28;20037;-78
2021/08/02 09:36:44;;;;;;;4.93;2.33;;;;;;;;;;4981269;28;20034;-78
2021/08/02 09:39:18;;;;;;;3.90;1.80;;;;;;;;;;4966733;28;20034;-79
2021/08/02 09:41:45;;;;;;;5.65;2.20;;;;;;;;;;4985099;28;20038;-78
2021/08/02 09:44:20;;;;;;;6.07;2.38;;;;;;;;;;4988280;28;20032;-78
2021/08/02 09:47:12;;;;;;;7.78;2.30;;;;;;;;;;4995723;28;20136;-78
2021/08/02 09:49:46;;;;;;;5.05;2.28;;;;;;;;;;4989108;28;20053;-79
2021/08/02 09:52:12;;;;;;;7.25;2.58;;;;;;;;;;4988607;28;20038;-78
2021/08/02 09:54:37;;;;;;;4.70;2.45;;;;;;;;;;4988205;28;20022;-78
2021/08/02 09:57:05;;;;;;;8.55;2.60;;;;;;;;;;4968542;28;20701;-79
2021/08/02 09:59:31;;;;;;;9.10;3.17;;;;;;;;;;4989829;28;20130;-79
2021/08/02 10:01:58;;;;;;;5.05;2.50;;;;;;;;;;4984827;28;20052;-79
2021/08/02 10:04:24;;;;;;;9.63;3.40;;;;;;;;;;4969072;28;20030;-78
2021/08/02 10:06:51;;;;;;;8.27;2.97;;;;;;;;;;4987084;28;20035;-79
2021/08/02 10:09:16;;;;;;;12.05;3.38;;;;;;;;;;4983979;28;20161;-78
2021/08/02 10:11:42;;;;;;;11.57;3.97;;;;;;;;;;4963897;28;20125;-78
2021/08/02 10:14:10;;;;;;;6.38;3.10;;;;;;;;;;4982292;28;20034;-78
2021/08/02 10:16:39;;;;;;;6.63;3.17;;;;;;;;;;4979658;28;20034;-79
2021/08/02 10:19:08;;;;;;;11.52;3.28;;;;;;;;;;4977231;28;20085;-78
2021/08/02 10:22:00;;;;;;;7.47;3.58;;;;;;;;;;4979782;28;20027;-78
2021/08/02 10:24:26;;;;;;;9.07;3.10;;;;;;;;;;4979911;28;20074;-78
2021/08/02 10:26:56;;;;;;;6.22;3.10;;;;;;;;;;4981442;28;20073;-79
2021/08/02 10:29:22;;;;;;;5.30;2.80;;;;;;;;;;4976442;28;20069;-78
2021/08/02 10:31:55;;;;;;;6.05;2.50;;;;;;;;;;4977233;28;20049;-79
2021/08/02 10:34:22;;;;;;;9.70;3.45;;;;;;;;;;4991300;28;20061;-78
2021/08/02 10:37:05;;;;;;;6.18;3.17;;;;;;;;;;4987239;28;20034;-78
2021/08/02 10:39:35;;;;;;;7.25;3.30;;;;;;;;;;4984263;28;20125;-79
2021/08/02 10:42:06;;;;;;;7.63;3.00;;;;;;;;;;4985482;28;20469;-78
2021/08/02 10:44:31;;;;;;;6.05;3.13;;;;;;;;;;4984573;28;20543;-77
2021/08/02 10:47:01;;;;;;;6.95;3.47;;;;;;;;;;4978468;28;20034;-76
2021/08/02 10:49:27;;;;;;;11.77;3.25;;;;;;;;;;4976132;28;20026;-76
2021/08/02 10:51:57;;;;;;;8.23;3.83;;;;;;;;;;4978709;28;20041;-77
2021/08/02 10:54:24;;;;;;;9.13;3.70;;;;;;;;;;4993936;28;20026;-77
2021/08/02 10:56:49;;;;;;;9.13;3.25;;;;;;;;;;4989503;28;20120;-78
2021/08/02 10:59:20;;;;;;;7.47;3.25;;;;;;;;;;4995235;28;20575;-77
2021/08/02 11:01:50;;;;;;;10.88;3.03;;;;;;;;;;4992949;28;20082;-77
2021/08/02 11:04:21;;;;;;;11.95;3.40;;;;;;;;;;4997529;28;20057;-79
2021/08/02 11:06:48;;;;;;;8.10;3.58;;;;;;;;;;4989803;28;20038;-79
2021/08/02 11:09:14;;;;;;;9.57;3.33;;;;;;;;;;4972217;28;20041;-79
2021/08/02 11:11:39;;;;;;;8.35;3.67;;;;;;;;;;4992876;28;20030;-78
2021/08/02 11:14:17;;;;;;;15.88;3.85;;;;;;;;;;4995958;28;20061;-79
2021/08/02 11:16:53;;;;;;;11.98;3.95;;;;;;;;;;4990659;28;20022;-79
2021/08/02 11:19:23;;;;;;;10.93;4.32;;;;;;;;;;4985998;28;20042;-79
2021/08/02 11:22:04;;;;;;;11.48;5.15;;;;;;;;;;4994540;28;20037;-78
2021/08/02 11:24:33;;;;;;;14.10;5.40;;;;;;;;;;5004466;28;20037;-78
2021/08/02 11:27:02;;;;;;;16.42;5.70;;;;;;;;;;4998444;28;20567;-79
2021/08/02 11:29:30;;;;;;;11.23;4.40;;;;;;;;;;4997623;28;20804;-79
2021/08/02 11:32:08;;;;;;;13.73;4.82;;;;;;;;;;5001300;28;20034;-78
2021/08/02 11:34:35;;;;;;;15.35;5.25;;;;;;;;;;4994709;28;20026;-77
2021/08/02 11:37:13;;;;;;;16.67;4.85;;;;;;;;;;4982310;28;20126;-77
2021/08/02 11:39:41;;;;;;;12.65;4.57;;;;;;;;;;4992703;28;20060;-76
2021/08/02 11:42:09;;;;;;;12.32;4.53;;;;;;;;;;5000600;28;20033;-77
2021/08/02 11:44:37;;;;;;;13.32;4.68;;;;;;;;;;4996978;28;20065;-77
2021/08/02 11:47:07;;;;;;;11.55;5.55;;;;;;;;;;5008725;28;20460;-76
2021/08/02 11:49:38;;;;;;;13.75;4.70;;;;;;;;;;5000422;28;20037;-79
2021/08/02 11:52:05;;;;;;;13.73;4.15;;;;;;;;;;5001713;28;20056;-77
2021/08/02 11:54:31;;;;;;;15.30;4.82;;;;;;;;;;5000277;28;20030;-79
2021/08/02 11:56:56;;;;;;;13.73;4.70;;;;;;;;;;4980426;28;20589;-76
2021/08/02 11:59:22;;;;;;;11.40;4.47;;;;;;;;;;5001864;28;20033;-79
2021/08/02 12:01:48;;;;;;;14.80;4.50;;;;;;;;;;5003650;28;20058;-77
2021/08/02 12:04:15;;;;;;;16.33;4.68;;;;;;;;;;4980407;28;20092;-77
2021/08/02 12:06:56;;;;;;;9.30;4.15;;;;;;;;;;4995912;28;20061;-77
2021/08/02 12:09:35;;;;;;;13.88;4.32;;;;;;;;;;4994499;28;20753;-78
2021/08/02 12:12:02;;;;;;;11.55;4.43;;;;;;;;;;4998104;28;20054;-78
2021/08/02 12:14:30;;;;;;;14.68;4.25;;;;;;;;;;4988340;28;20025;-78
2021/08/02 12:17:10;;;;;;;14.55;5.30;;;;;;;;;;5004805;28;20026;-76
2021/08/02 12:19:50;;;;;;;14.13;4.90;;;;;;;;;;5001970;28;20025;-76
2021/08/02 12:22:17;;;;;;;17.05;5.18;;;;;;;;;;4986621;28;20494;-77
2021/08/02 12:24:57;;;;;;;15.30;5.70;;;;;;;;;;4997646;28;20026;-77
2021/08/02 12:27:24;;;;;;;11.90;4.45;;;;;;;;;;4993750;28;20033;-77
2021/08/02 12:29:56;;;;;;;11.30;4.00;;;;;;;;;;4997582;28;20041;-75
2021/08/02 12:32:40;;;;;;;16.25;4.82;;;;;;;;;;4995365;28;20110;-76
2021/08/02 12:35:13;;;;;;;11.27;4.35;;;;;;;;;;4990033;28;20026;-76
2021/08/02 12:37:40;;;;;;;18.98;4.15;;;;;;;;;;4990753;28;20034;-78
2021/08/02 12:40:10;;;;;;;11.60;4.40;;;;;;;;;;4996810;28;20572;-76
2021/08/02 12:42:37;;;;;;;14.20;4.60;;;;;;;;;;4992647;28;20579;-76
2021/08/02 12:45:04;;;;;;;12.25;4.00;;;;;;;;;;4991738;28;20036;-77
2021/08/02 12:47:29;;;;;;;12.60;5.57;;;;;;;;;;4992549;28;20034;-79
2021/08/02 12:49:57;;;;;;;12.35;4.85;;;;;;;;;;4968796;28;20036;-77
2021/08/02 12:52:26;;;;;;;18.02;4.65;;;;;;;;;;4978441;28;20501;-77
2021/08/02 12:54:52;;;;;;;16.60;4.60;;;;;;;;;;4998262;28;20053;-77
2021/08/02 12:57:17;;;;;;;13.27;5.43;;;;;;;;;;4989672;28;20022;-77
2021/08/02 12:59:42;;;;;;;16.35;5.70;;;;;;;;;;4981611;28;20037;-77
2021/08/02 13:02:08;;;;;;;19.75;5.82;;;;;;;;;;4999048;28;20042;-78
2021/08/02 13:04:33;;;;;;;16.08;5.40;;;;;;;;;;4993417;28;20038;-80
2021/08/02 13:06:59;;;;;;;13.77;5.20;;;;;;;;;;4994068;28;20091;-79
2021/08/02 13:09:24;;;;;;;13.38;4.93;;;;;;;;;;4973037;28;20046;-79
2021/08/02 13:11:50;;;;;;;19.23;6.32;;;;;;;;;;4999409;28;20038;-79
2021/08/02 13:14:15;;;;;;;14.38;4.60;;;;;;;;;;4977494;28;20535;-79
2021/08/02 13:16:41;;;;;;;14.60;6.03;;;;;;;;;;4985006;28;20115;-79
2021/08/02 13:19:06;;;;;;;11.98;5.55;;;;;;;;;;4996047;28;20069;-79
2021/08/02 13:21:31;;;;;;;10.75;5.15;;;;;;;;;;4976656;28;20037;-79
2021/08/02 13:26:57;;;;;;;14.98;5.00;;;;;;;;;;4992689;28;20112;-79
2021/08/02 13:29:26;;;;;;;8.93;4.80;;;;;;;;;;4998526;28;20597;-79
2021/08/02 13:31:54;;;;;;;10.68;4.50;;;;;;;;;;4995854;28;20034;-79
2021/08/02 13:34:20;;;;;;;10.23;4.20;;;;;;;;;;4995998;28;20022;-78
2021/08/02 13:36:45;;;;;;;8.05;4.30;;;;;;;;;;4982942;28;20026;-78
2021/08/02 13:39:11;;;;;;;4.72;2.80;;;;;;;;;;4973512;28;20044;-78
2021/08/02 13:41:37;;;;;;;6.15;1.90;;;;;;;;;;5000385;28;20040;-79
2021/08/02 13:44:03;;;;;;;3.97;2.22;;;;;;;;;;4993299;28;20030;-78
2021/08/02 13:46:31;;;;;;;3.55;2.17;;;;;;;;;;5003415;28;20089;-77
2021/08/02 13:48:58;;;;;;;5.50;1.88;;;;;;;;;;4992246;28;20401;-77
2021/08/02 13:51:24;;;;;;;3.25;1.70;;;;;;;;;;5004495;28;20034;-77
2021/08/02 13:53:50;;;;;;;3.03;1.67;;;;;;;;;;4995840;28;20038;-78
2021/08/02 13:56:15;;;;;;;4.88;1.63;;;;;;;;;;4992717;28;20072;-76
2021/08/02 13:58:41;;;;;;;3.08;1.75;;;;;;;;;;4988510;28;20034;-77
2021/08/02 14:01:06;;;;;;;4.45;1.80;;;;;;;;;;4979103;28;20065;-77
2021/08/02 14:03:33;;;;;;;3.17;1.50;;;;;;;;;;4999205;28;20505;-77
2021/08/02 14:05:59;;;;;;;1.65;1.30;;;;;;;;;;4997181;28;20119;-76
2021/08/02 14:08:25;;;;;;;5.43;1.50;;;;;;;;;;4992742;28;20054;-77
2021/08/02 14:10:53;;;;;;;3.63;1.60;;;;;;;;;;4994365;28;20400;-78
2021/08/02 14:13:18;;;;;;;3.13;1.27;;;;;;;;;;5001257;28;20038;-76
2021/08/02 14:15:53;;;;;;;2.40;1.40;;;;;;;;;;4997616;28;20072;-77
2021/08/02 14:18:40;;;;;;;3.22;1.55;;;;;;;;;;4995011;28;20026;-77
2021/08/02 14:21:06;;;;;;;4.78;1.52;;;;;;;;;;4996667;28;20567;-76
2021/08/02 14:23:32;;;;;;;3.75;1.92;;;;;;;;;;4993723;28;20108;-76
2021/08/02 14:25:58;;;;;;;2.47;1.33;;;;;;;;;;4993549;28;20042;-76
2021/08/02 14:28:24;;;;;;;3.88;1.83;;;;;;;;;;4991771;28;20026;-77
2021/08/02 14:30:51;;;;;;;4.82;2.08;;;;;;;;;;4982501;28;20037;-77
2021/08/02 14:33:18;;;;;;;4.43;1.90;;;;;;;;;;5000038;28;20032;-76
2021/08/02 14:35:44;;;;;;;4.07;2.03;;;;;;;;;;4995095;28;20037;-77
2021/08/02 14:38:10;;;;;;;3.30;2.00;;;;;;;;;;4978629;28;20054;-76
2021/08/02 14:40:36;;;;;;;2.80;1.65;;;;;;;;;;4994052;28;20113;-77
2021/08/02 14:43:16;;;;;;;3.55;1.85;;;;;;;;;;4991301;28;20030;-77
2021/08/02 14:45:42;;;;;;;5.05;2.10;;;;;;;;;;4993342;28;20050;-77